Avis, Pennsylvania
Current Conditions -  °F | °C
As of 8:54 PM on Wednesday 17 Dec 2014 (Local Time) from KIPT Reporting Station
Overcast Overcast  
Wind Chill: 29°   Ceiling: 3900
Heat Index: 36°   Visibility: 10mi
Dew Point: 23°   Wind: 9mph
Humidity: 59%   Direction: 270°W
Pressure: 29.97"   Gusts: NA
Location:  41.18°N, 77.31°W
Report Text: KIPT 180154Z 27008KT 10SM OVC039 02/M05 A2997 RMK AO2 SLP153 T00221050
Loading
Personal Weather Stations






























Interactive Weather Map New forecast layout! Learn more

10-Day Weather Forecast

Advertisements
Track Severe Weather on mobile